Time;durP1;ratioP1;P1;durP2;ratioP2;P2;SDS_P1;SDS_P2;PMS_P1;PMS_P2;Temp;Humidity;BMP_temperature;BMP_pressure;BME280_temperature;BME280_humidity;BME280_pressure;Samples;Min_cycle;Max_cycle;Signal;HPM_P1;HPM_P2
2022/10/22 00:00:39;;;;;;;7.45;4.75;;;;;;;9.43;100.00;100165.94;6328970;28;20044;-76
2022/10/22 00:03:40;;;;;;;11.23;5.07;;;;;;;9.42;96.95;100158.22;6346389;28;20054;-77
2022/10/22 00:06:43;;;;;;;7.45;4.40;;;;;;;9.41;96.63;100154.78;6347661;28;20044;-76
2022/10/22 00:09:45;;;;;;;9.90;4.38;;;;;;;9.48;98.92;100163.09;6346332;28;20050;-76
2022/10/22 00:12:46;;;;;;;11.18;4.45;;;;;;;9.51;97.84;100144.69;6346240;28;20506;-76
2022/10/22 00:15:46;;;;;;;10.77;4.53;;;;;;;9.51;97.78;100143.84;6346256;28;20043;-76
2022/10/22 00:18:47;;;;;;;9.32;4.60;;;;;;;9.53;96.35;100153.25;6346234;28;20081;-76
2022/10/22 00:21:48;;;;;;;9.07;4.40;;;;;;;9.53;98.02;100140.22;6346102;28;20050;-76
2022/10/22 00:24:48;;;;;;;7.95;3.80;;;;;;;9.57;96.85;100140.91;6346154;28;20039;-76
2022/10/22 00:27:49;;;;;;;7.82;4.32;;;;;;;9.58;98.76;100129.56;6344921;28;20036;-76
2022/10/22 00:30:58;;;;;;;8.65;4.13;;;;;;;9.60;95.47;100131.16;6345192;28;20101;-76
2022/10/22 00:33:58;;;;;;;8.05;4.40;;;;;;;9.59;94.87;100121.66;6345265;28;20059;-76
2022/10/22 00:36:59;;;;;;;10.40;4.30;;;;;;;9.63;93.50;100117.94;6346466;28;20035;-76
2022/10/22 00:40:00;;;;;;;10.02;4.40;;;;;;;9.64;92.35;100108.38;6325675;28;20093;-76
2022/10/22 00:43:00;;;;;;;7.95;4.00;;;;;;;9.65;93.00;100091.81;6324183;28;20496;-76
2022/10/22 00:46:01;;;;;;;8.45;3.47;;;;;;;9.67;90.92;100101.22;6325487;28;20047;-76
2022/10/22 00:49:03;;;;;;;7.32;3.75;;;;;;;9.69;89.15;100094.16;6324241;28;20044;-76
2022/10/22 00:52:04;;;;;;;9.00;3.60;;;;;;;9.78;89.70;100103.22;6324142;28;20043;-76
2022/10/22 00:55:05;;;;;;;6.20;3.60;;;;;;;9.79;88.13;100096.25;6307076;28;20153;-77
2022/10/22 00:58:06;;;;;;;7.65;4.13;;;;;;;9.78;87.47;100087.59;6349284;28;20043;-76
2022/10/22 01:01:12;;;;;;;5.22;3.30;;;;;;;9.84;86.47;100097.69;6332462;28;20071;-76
2022/10/22 01:04:13;;;;;;;7.03;3.97;;;;;;;9.87;85.37;100088.84;6349525;28;20506;-76
2022/10/22 01:07:17;;;;;;;11.27;4.18;;;;;;;9.84;84.00;100074.22;6350270;28;20184;-76
2022/10/22 01:10:21;;;;;;;7.45;4.20;;;;;;;9.83;85.37;100079.50;6349197;28;20403;-76
2022/10/22 01:13:40;;;;;;;6.30;3.72;;;;;;;9.78;85.04;100063.28;6349062;28;20044;-76
2022/10/22 01:17:00;;;;;;;8.18;3.88;;;;;;;9.81;84.52;100068.34;6342539;28;20050;-77
2022/10/22 01:20:24;;;;;;;7.85;3.38;;;;;;;9.82;84.49;100067.41;6324812;28;20155;-76
2022/10/22 01:24:13;;;;;;;4.68;2.95;;;;;;;9.78;82.84;100058.94;6323524;28;20123;-76
2022/10/22 01:27:42;;;;;;;6.65;3.63;;;;;;;9.71;85.39;100060.19;6248985;28;20490;-76
2022/10/22 01:30:45;;;;;;;8.15;2.75;;;;;;;9.63;83.65;100055.41;6323342;28;20135;-75
2022/10/22 01:33:50;;;;;;;8.38;3.65;;;;;;;9.65;83.90;100063.16;6323392;28;20047;-76
2022/10/22 01:36:53;;;;;;;4.63;3.03;;;;;;;9.60;84.35;100044.34;6323032;28;20048;-76
2022/10/22 01:39:56;;;;;;;7.93;3.85;;;;;;;9.58;83.66;100049.66;6324434;28;20036;-75
2022/10/22 01:43:02;;;;;;;7.00;3.80;;;;;;;9.54;84.10;100052.53;6345694;28;20396;-76
2022/10/22 01:46:05;;;;;;;5.38;2.90;;;;;;;9.57;83.65;100057.53;6314315;28;20051;-76
2022/10/22 01:49:16;;;;;;;7.38;3.35;;;;;;;9.55;83.62;100054.19;6331264;28;20065;-76
2022/10/22 01:52:31;;;;;;;6.88;3.00;;;;;;;9.52;82.74;100046.56;6314087;28;20429;-76
2022/10/22 01:55:55;;;;;;;5.90;3.05;;;;;;;9.49;83.89;100044.94;6349260;28;20406;-76
2022/10/22 01:59:14;;;;;;;4.88;3.08;;;;;;;9.44;83.75;100040.00;6330888;28;20044;-75
2022/10/22 02:02:35;;;;;;;7.18;3.05;;;;;;;9.40;84.39;100046.31;6330944;28;20054;-76
2022/10/22 02:05:44;;;;;;;6.75;3.00;;;;;;;9.39;84.02;100021.22;6330784;28;20399;-75
2022/10/22 02:08:47;;;;;;;7.35;3.70;;;;;;;9.38;83.17;100024.72;6347678;28;20043;-76
2022/10/22 02:11:49;;;;;;;4.70;3.30;;;;;;;9.39;83.43;100028.16;6313502;28;20043;-75
2022/10/22 02:14:51;;;;;;;3.53;2.60;;;;;;;9.42;82.77;100033.22;6347820;28;20040;-77
2022/10/22 02:17:54;;;;;;;;;;;;;;;9.46;82.38;100045.13;6313897;28;20066;-75
2022/10/22 02:20:56;;;;;;;6.25;3.10;;;;;;;9.52;81.08;100038.75;6330640;28;20287;-75
2022/10/22 02:23:57;;;;;;;5.43;3.13;;;;;;;9.50;80.96;100038.81;6348548;28;20046;-75
2022/10/22 02:27:20;;;;;;;5.43;2.95;;;;;;;9.46;81.83;100045.13;6357165;27;20126;-75
2022/10/22 02:30:22;;;;;;;4.75;2.85;;;;;;;9.38;82.47;100042.94;6356951;27;20096;-76
2022/10/22 02:33:46;;;;;;;5.87;3.10;;;;;;;9.30;82.69;100052.13;6372081;27;20043;-76
2022/10/22 02:36:49;;;;;;;7.43;3.47;;;;;;;9.26;82.94;100049.69;6366888;27;20462;-76
2022/10/22 02:39:51;;;;;;;6.07;2.78;;;;;;;9.24;83.32;100043.72;6348346;28;20368;-76
2022/10/22 02:42:52;;;;;;;6.15;3.45;;;;;;;9.24;83.87;100048.91;6330324;28;20168;-76
2022/10/22 02:45:53;;;;;;;6.03;3.08;;;;;;;9.17;84.59;100041.56;6330305;28;20064;-75
2022/10/22 02:48:54;;;;;;;5.35;3.00;;;;;;;9.10;84.36;100046.28;6373915;27;20043;-76
2022/10/22 02:51:54;;;;;;;5.45;2.80;;;;;;;9.02;84.94;100054.50;6355916;27;20047;-76
2022/10/22 02:54:55;;;;;;;6.03;3.00;;;;;;;8.98;84.55;100050.38;6355833;27;20046;-76
2022/10/22 02:57:55;;;;;;;5.80;3.42;;;;;;;9.00;85.00;100048.53;6355536;27;20501;-76
2022/10/22 03:00:56;;;;;;;5.03;2.80;;;;;;;8.96;85.70;100043.59;6355288;27;20100;-76
2022/10/22 03:03:57;;;;;;;4.95;2.80;;;;;;;8.87;85.64;100043.16;6355708;27;20047;-75
2022/10/22 03:06:58;;;;;;;4.72;2.92;;;;;;;8.83;85.67;100048.59;6373771;27;20122;-75
2022/10/22 03:09:58;;;;;;;7.38;3.08;;;;;;;8.88;85.38;100044.00;6355399;27;20071;-76
2022/10/22 03:12:59;;;;;;;5.65;3.42;;;;;;;8.84;86.10;100051.13;6355229;27;20375;-75
2022/10/22 03:16:00;;;;;;;3.72;2.80;;;;;;;8.77;86.65;100043.72;6373806;27;20140;-76
2022/10/22 03:19:01;;;;;;;6.38;2.97;;;;;;;8.79;86.91;100041.88;6373809;27;20059;-76
2022/10/22 03:22:08;;;;;;;5.70;2.97;;;;;;;8.71;86.71;100037.09;6373412;27;20072;-75
2022/10/22 03:25:15;;;;;;;5.80;2.70;;;;;;;8.67;88.06;100028.63;6355389;27;20479;-76
2022/10/22 03:28:17;;;;;;;4.53;2.72;;;;;;;8.58;88.14;100029.09;6373563;27;20050;-76
2022/10/22 03:31:18;;;;;;;7.07;3.08;;;;;;;8.57;88.63;100039.59;6355154;27;20050;-76
2022/10/22 03:34:19;;;;;;;7.35;2.88;;;;;;;8.51;89.01;100027.75;6355012;28;20067;-75
2022/10/22 03:37:20;;;;;;;12.13;3.35;;;;;;;8.49;88.85;100031.34;6355104;28;20382;-76
2022/10/22 03:40:21;;;;;;;4.95;2.70;;;;;;;8.46;88.65;100033.19;6373677;28;20050;-75
2022/10/22 03:43:21;;;;;;;6.03;3.38;;;;;;;8.50;89.18;100026.06;6373036;27;20478;-75
2022/10/22 03:46:24;;;;;;;4.95;3.25;;;;;;;8.52;88.89;100033.78;6354968;28;20554;-76
2022/10/22 03:49:25;;;;;;;7.57;3.53;;;;;;;8.49;89.74;100027.00;6373321;28;20043;-75
2022/10/22 03:52:26;;;;;;;5.10;2.63;;;;;;;8.44;89.23;100031.56;6351053;28;20083;-76
2022/10/22 03:55:26;;;;;;;5.95;3.42;;;;;;;8.39;89.93;100030.97;6329610;28;20047;-76
2022/10/22 03:58:27;;;;;;;6.55;3.00;;;;;;;8.37;90.51;100030.19;6312560;28;20052;-76
2022/10/22 04:01:29;;;;;;;5.93;2.97;;;;;;;8.36;90.90;100031.97;6329735;28;20035;-76
2022/10/22 04:04:30;;;;;;;5.13;3.17;;;;;;;8.31;90.80;100028.75;6347602;28;20039;-76
2022/10/22 04:07:31;;;;;;;3.70;2.20;;;;;;;8.30;91.04;100028.81;6329360;28;20223;-76
2022/10/22 04:10:31;;;;;;;5.35;3.10;;;;;;;8.31;92.69;100025.31;6329561;28;20417;-76
2022/10/22 04:13:32;;;;;;;8.95;3.17;;;;;;;8.30;92.26;100026.22;6331409;28;20078;-75
2022/10/22 04:16:33;;;;;;;3.65;2.53;;;;;;;8.26;92.42;100015.16;6334331;28;20406;-76
2022/10/22 04:19:34;;;;;;;2.95;2.33;;;;;;;8.23;91.98;100010.94;6333803;28;20088;-75
2022/10/22 04:22:35;;;;;;;9.15;2.72;;;;;;;8.29;92.93;100004.59;6333510;28;20044;-76
2022/10/22 04:25:35;;;;;;;4.68;2.67;;;;;;;8.23;91.80;99989.31;6351790;28;20071;-75
2022/10/22 04:28:36;;;;;;;4.63;2.70;;;;;;;8.33;92.24;100010.47;6333963;28;20114;-76
2022/10/22 04:31:37;;;;;;;4.25;2.20;;;;;;;8.34;92.52;100013.00;6351938;28;20418;-75
2022/10/22 04:34:38;;;;;;;3.78;2.22;;;;;;;8.31;92.12;100025.31;6333915;28;20047;-76
2022/10/22 04:37:39;;;;;;;7.82;2.85;;;;;;;8.27;92.32;100027.22;6333621;28;20066;-75
2022/10/22 04:40:39;;;;;;;5.50;2.75;;;;;;;8.27;92.99;100022.03;6333213;28;20406;-76
2022/10/22 04:43:41;;;;;;;3.67;2.67;;;;;;;8.30;91.94;100032.28;6333834;28;20050;-76
2022/10/22 04:46:44;;;;;;;3.85;2.97;;;;;;;8.37;92.13;100044.03;6352150;28;20502;-76
2022/10/22 04:49:45;;;;;;;6.15;2.67;;;;;;;8.30;93.30;100031.41;6333375;28;20051;-76
2022/10/22 04:52:48;;;;;;;6.00;3.08;;;;;;;8.27;93.90;100016.84;6333466;28;20052;-75
2022/10/22 04:55:48;;;;;;;8.70;4.32;;;;;;;8.14;94.20;100014.03;6333309;28;20135;-76
2022/10/22 04:59:01;;;;;;;8.25;4.30;;;;;;;8.13;94.49;100014.09;6316412;28;20058;-75
2022/10/22 05:02:02;;;;;;;8.60;5.00;;;;;;;8.07;94.89;100013.50;6333101;28;20075;-76
2022/10/22 05:05:03;;;;;;;7.38;4.38;;;;;;;8.10;95.48;100003.88;6316051;28;20058;-76
2022/10/22 05:08:04;;;;;;;6.63;3.78;;;;;;;8.03;96.11;99991.19;6332994;28;20071;-75
2022/10/22 05:11:18;;;;;;;8.15;3.63;;;;;;;8.01;96.28;99992.19;6351052;28;20044;-75
2022/10/22 05:14:22;;;;;;;5.47;3.10;;;;;;;8.00;96.85;99986.16;6333302;28;20185;-75
2022/10/22 05:17:23;;;;;;;8.77;3.88;;;;;;;8.03;97.29;99987.75;6333120;28;20407;-76
2022/10/22 05:20:24;;;;;;;9.18;4.45;;;;;;;7.96;97.69;99982.03;6350804;27;20047;-76
2022/10/22 05:23:24;;;;;;;4.50;2.85;;;;;;;7.96;97.44;99982.03;6336166;27;20051;-76
2022/10/22 05:26:27;;;;;;;5.80;3.50;;;;;;;8.06;97.48;99992.78;6354393;27;20081;-76
2022/10/22 05:29:27;;;;;;;;;;;;;;;8.07;96.85;99994.47;6350180;28;20031;-79
2022/10/22 05:32:28;;;;;;;4.20;2.90;;;;;;;8.09;96.83;99997.81;6331542;28;19927;-76
2022/10/22 05:35:28;;;;;;;5.70;2.95;;;;;;;8.11;96.87;99990.78;6331656;28;20057;-75
2022/10/22 05:38:31;;;;;;;4.80;2.72;;;;;;;8.16;96.67;100001.78;6336691;28;20035;-75
2022/10/22 05:41:33;;;;;;;7.35;4.03;;;;;;;8.18;96.32;100010.34;6349508;28;20056;-75
2022/10/22 05:44:34;;;;;;;9.75;3.30;;;;;;;8.18;95.99;100006.94;6331363;28;20039;-77
2022/10/22 05:47:35;;;;;;;33.65;9.00;;;;;;;8.25;96.76;100018.66;6332114;28;20043;-77
2022/10/22 05:50:36;;;;;;;80.75;24.50;;;;;;;8.34;96.27;100017.34;6349431;27;20043;-77
2022/10/22 05:53:40;;;;;;;43.73;12.63;;;;;;;8.36;96.76;100028.50;6375389;27;20073;-76
2022/10/22 05:56:45;;;;;;;8.80;4.75;;;;;;;8.43;95.16;100033.34;6362819;27;20636;-77
2022/10/22 05:59:46;;;;;;;4.78;2.58;;;;;;;8.55;94.00;100054.44;6361544;27;20112;-76
2022/10/22 06:02:50;;;;;;;5.70;2.50;;;;;;;8.74;93.91;100059.50;6331652;28;20455;-77
2022/10/22 06:05:51;;;;;;;4.40;2.58;;;;;;;8.81;93.87;100050.44;6349746;28;20035;-76
2022/10/22 06:08:53;;;;;;;2.83;2.20;;;;;;;8.81;93.46;100053.03;6349406;28;20075;-76
2022/10/22 06:11:54;;;;;;;3.67;2.33;;;;;;;9.00;92.05;100071.13;6349427;28;20514;-76
2022/10/22 06:14:55;;;;;;;3.83;2.65;;;;;;;9.10;92.18;100072.31;6331252;28;20075;-76
2022/10/22 06:17:56;;;;;;;4.13;2.58;;;;;;;9.22;91.64;100069.00;6331653;28;20054;-76
2022/10/22 06:21:03;;;;;;;4.75;2.92;;;;;;;9.42;90.78;100069.66;6314222;28;20134;-76
2022/10/22 06:24:04;;;;;;;5.95;2.35;;;;;;;9.57;90.25;100065.34;6331521;28;20051;-76
2022/10/22 06:27:05;;;;;;;3.78;2.33;;;;;;;9.75;90.81;100056.50;6349436;28;20051;-76
2022/10/22 06:30:06;;;;;;;5.22;2.67;;;;;;;9.93;87.67;100062.41;6349192;28;20047;-76
2022/10/22 06:33:09;;;;;;;8.85;2.55;;;;;;;10.11;85.60;100065.72;6331063;28;20040;-76
2022/10/22 06:36:15;;;;;;;5.03;2.00;;;;;;;10.22;85.55;100067.69;6313121;28;20071;-76
2022/10/22 06:39:16;;;;;;;4.35;2.42;;;;;;;10.32;85.31;100070.63;6348765;28;20471;-76
2022/10/22 06:42:19;;;;;;;5.35;2.47;;;;;;;10.49;85.82;100075.66;6347199;27;20059;-76
2022/10/22 06:45:20;;;;;;;4.32;2.55;;;;;;;10.57;84.36;100075.22;6374674;27;20100;-75
2022/10/22 06:48:21;;;;;;;4.85;2.70;;;;;;;10.63;83.32;100080.88;6356149;27;20039;-76
2022/10/22 06:51:22;;;;;;;3.15;2.28;;;;;;;10.62;83.72;100073.97;6355915;27;20063;-77
2022/10/22 06:54:23;;;;;;;4.13;1.95;;;;;;;10.60;83.61;100080.22;6355679;27;20447;-78
2022/10/22 06:57:25;;;;;;;9.73;3.10;;;;;;;10.71;83.60;100080.44;6355043;27;20039;-77
2022/10/22 07:00:27;;;;;;;2.97;1.90;;;;;;;10.81;84.24;100088.50;6345526;27;20051;-77
2022/10/22 07:03:27;;;;;;;8.13;2.60;;;;;;;10.80;84.03;100079.00;6357126;27;20479;-77
2022/10/22 07:06:31;;;;;;;2.33;1.75;;;;;;;10.73;84.60;100075.94;6329757;28;20495;-77
2022/10/22 07:09:32;;;;;;;3.10;2.13;;;;;;;10.72;86.14;100083.88;6340125;27;20535;-77
2022/10/22 07:12:32;;;;;;;3.40;2.28;;;;;;;10.75;84.86;100089.75;6354752;27;20035;-77
2022/10/22 07:15:33;;;;;;;3.83;2.45;;;;;;;10.76;84.98;100082.75;6354845;27;20058;-77
2022/10/22 07:18:35;;;;;;;3.80;2.53;;;;;;;10.79;86.02;100096.44;6370790;27;20039;-77
2022/10/22 07:21:35;;;;;;;3.33;1.90;;;;;;;10.65;85.98;100092.06;6317978;28;20044;-77
2022/10/22 07:24:39;;;;;;;6.53;2.67;;;;;;;10.83;86.01;100099.69;6347407;28;20035;-77
2022/10/22 07:27:40;;;;;;;2.60;2.03;;;;;;;11.00;84.82;100102.13;6347395;28;20415;-78
2022/10/22 07:30:43;;;;;;;3.22;2.17;;;;;;;11.19;84.20;100098.34;6347006;28;20039;-77
2022/10/22 07:33:44;;;;;;;3.92;2.05;;;;;;;11.35;82.76;100108.69;6347413;28;20045;-77
2022/10/22 07:36:45;;;;;;;11.48;3.00;;;;;;;11.48;82.72;100102.56;6329024;28;20044;-77
2022/10/22 07:39:46;;;;;;;4.75;2.28;;;;;;;11.64;81.25;100110.25;6329129;28;20467;-78
2022/10/22 07:42:47;;;;;;;3.95;2.50;;;;;;;11.77;81.55;100119.94;6346995;28;20590;-78
2022/10/22 07:45:47;;;;;;;7.45;2.75;;;;;;;11.95;80.65;100121.38;6329122;28;20062;-78
2022/10/22 07:48:48;;;;;;;4.82;3.17;;;;;;;12.10;79.70;100107.28;6333199;28;20032;-77
2022/10/22 07:51:49;;;;;;;12.20;3.53;;;;;;;12.21;79.70;100108.34;6352285;28;20514;-78
2022/10/22 07:54:49;;;;;;;5.68;3.33;;;;;;;12.37;80.36;100103.75;6352226;28;20046;-77
2022/10/22 07:57:50;;;;;;;4.57;3.00;;;;;;;12.44;78.88;100097.16;6352416;28;20040;-78
2022/10/22 08:00:54;;;;;;;8.45;3.28;;;;;;;12.79;79.74;100101.75;6333788;28;20479;-78
2022/10/22 08:03:55;;;;;;;6.75;3.20;;;;;;;12.86;77.71;100110.84;6333870;28;20406;-77
2022/10/22 08:06:56;;;;;;;5.60;3.50;;;;;;;12.96;77.97;100111.06;6333612;28;20036;-77
2022/10/22 08:09:56;;;;;;;8.45;3.15;;;;;;;12.99;77.16;100103.00;6351880;28;20047;-78
2022/10/22 08:12:57;;;;;;;6.00;3.67;;;;;;;13.25;78.18;100108.16;6355504;27;20483;-77
2022/10/22 08:15:59;;;;;;;9.70;3.85;;;;;;;13.36;76.16;100103.00;6343874;28;20036;-77
2022/10/22 08:19:00;;;;;;;5.78;3.63;;;;;;;13.43;75.78;100111.28;6341011;27;20035;-77
2022/10/22 08:22:01;;;;;;;4.45;3.10;;;;;;;13.64;76.13;100103.66;6356118;27;20100;-77
2022/10/22 08:25:02;;;;;;;7.45;3.72;;;;;;;13.56;76.11;100098.13;6370948;27;20044;-78
2022/10/22 08:28:03;;;;;;;7.32;4.25;;;;;;;13.63;75.14;100089.72;6339299;27;20414;-78
2022/10/22 08:31:06;;;;;;;7.43;4.45;;;;;;;13.78;76.14;100086.91;6372392;27;20160;-78
2022/10/22 08:34:07;;;;;;;12.52;4.32;;;;;;;13.86;77.18;100095.88;6336237;27;20058;-78
2022/10/22 08:37:13;;;;;;;7.65;4.25;;;;;;;13.98;76.22;100090.66;6355332;27;20097;-78
2022/10/22 08:40:38;;;;;;;9.27;5.15;;;;;;;14.30;76.84;100107.44;6315648;28;20450;-78
2022/10/22 08:44:03;;;;;;;9.75;4.90;;;;;;;14.39;76.81;100102.44;6332725;28;20555;-78
2022/10/22 08:47:13;;;;;;;9.88;4.50;;;;;;;14.51;75.38;100110.22;6351121;28;20099;-78
2022/10/22 08:50:21;;;;;;;7.47;4.20;;;;;;;14.69;74.99;100104.53;6350629;28;20036;-78
2022/10/22 08:54:04;;;;;;;6.68;4.05;;;;;;;15.01;73.16;100107.31;6332411;28;20074;-78
2022/10/22 08:57:08;;;;;;;;;;;;;;;15.27;73.53;100110.47;6332782;28;20043;-78
2022/10/22 09:00:18;;;;;;;6.60;3.95;;;;;;;15.38;71.75;100108.78;6331423;28;19998;-78
2022/10/22 09:03:52;;;;;;;9.10;4.45;;;;;;;15.32;73.37;100112.75;6332096;28;20100;-78
2022/10/22 09:06:54;;;;;;;6.85;4.22;;;;;;;15.41;72.27;100127.78;6315113;28;20055;-78
2022/10/22 09:10:07;;;;;;;9.30;4.60;;;;;;;15.66;71.22;100126.63;6332071;28;20118;-78
2022/10/22 09:13:15;;;;;;;7.25;4.78;;;;;;;15.72;71.76;100141.13;6331358;28;20514;-79
2022/10/22 09:16:19;;;;;;;5.90;3.90;;;;;;;15.48;71.59;100147.38;6331995;28;20096;-76
2022/10/22 09:19:38;;;;;;;8.23;4.63;;;;;;;16.01;70.51;100137.91;6314934;28;20142;-76
2022/10/22 09:23:04;;;;;;;9.60;4.85;;;;;;;16.18;71.61;100123.34;6350308;28;20050;-76
2022/10/22 09:26:24;;;;;;;7.10;4.30;;;;;;;16.58;67.59;100120.00;6331751;28;20036;-77
2022/10/22 09:29:32;;;;;;;5.72;3.75;;;;;;;16.82;68.32;100114.44;6349630;28;20059;-78
2022/10/22 09:32:32;;;;;;;7.40;4.28;;;;;;;16.88;66.00;100111.25;6331359;28;20039;-78
2022/10/22 09:35:43;;;;;;;7.72;4.15;;;;;;;16.66;67.80;100114.91;6331677;28;20444;-78
2022/10/22 09:38:47;;;;;;;11.95;4.50;;;;;;;16.52;69.97;100110.81;6331540;28;20110;-78
2022/10/22 09:41:48;;;;;;;8.02;4.55;;;;;;;16.41;68.29;100111.72;6330972;28;20503;-78
2022/10/22 09:44:54;;;;;;;7.60;3.92;;;;;;;16.41;70.04;100114.34;6349449;28;20040;-78
2022/10/22 09:48:18;;;;;;;7.45;4.30;;;;;;;17.03;69.42;100106.50;6331696;28;20071;-78
2022/10/22 09:51:20;;;;;;;6.43;3.83;;;;;;;17.43;65.87;100119.63;6330715;28;20109;-78
2022/10/22 09:54:24;;;;;;;8.40;4.18;;;;;;;17.86;63.57;100110.53;6330907;28;20040;-78
2022/10/22 09:57:28;;;;;;;9.85;3.97;;;;;;;18.09;65.03;100110.22;6333588;27;20493;-79
2022/10/22 10:00:29;;;;;;;6.97;3.83;;;;;;;18.17;63.69;100112.16;6318149;28;20048;-78
2022/10/22 10:03:34;;;;;;;8.50;4.18;;;;;;;18.40;64.06;100089.72;6328997;28;20130;-78
2022/10/22 10:06:39;;;;;;;7.50;4.70;;;;;;;18.26;64.18;100088.41;6313311;28;20066;-78
2022/10/22 10:09:40;;;;;;;7.88;4.53;;;;;;;17.98;65.79;100087.47;6330561;28;20098;-78
2022/10/22 10:13:22;;;;;;;9.07;4.47;;;;;;;17.72;67.65;100090.63;6329604;28;20036;-78
2022/10/22 10:16:28;;;;;;;8.23;4.28;;;;;;;17.79;67.79;100096.19;6296809;28;20768;-78
2022/10/22 10:20:12;;;;;;;8.77;4.15;;;;;;;17.78;68.96;100083.97;6330214;28;20415;-78
2022/10/22 10:23:18;;;;;;;5.88;3.83;;;;;;;17.46;69.49;100086.84;6303014;28;20119;-78
2022/10/22 10:27:18;;;;;;;6.47;4.00;;;;;;;17.42;70.49;100090.72;6330330;28;20119;-79
2022/10/22 10:30:22;;;;;;;6.07;3.60;;;;;;;17.37;69.78;100092.97;6191751;28;20153;-78
2022/10/22 10:33:40;;;;;;;8.48;4.50;;;;;;;17.36;70.13;100081.59;6199725;28;20441;-78
2022/10/22 10:36:55;;;;;;;9.50;4.05;;;;;;;17.24;70.05;100088.78;6330060;28;20044;-78
2022/10/22 10:40:10;;;;;;;6.70;3.67;;;;;;;17.24;70.68;100083.50;6347922;28;20046;-78
2022/10/22 10:43:26;;;;;;;6.20;4.03;;;;;;;17.46;70.30;100085.06;6329588;28;20059;-78
2022/10/22 10:46:37;;;;;;;6.63;3.72;;;;;;;17.45;70.29;100078.09;6347837;28;20467;-77
2022/10/22 10:49:38;;;;;;;6.10;3.75;;;;;;;17.52;69.74;100066.06;6348192;28;20482;-77
2022/10/22 10:52:47;;;;;;;6.07;3.58;;;;;;;17.40;72.10;100063.66;6312368;28;20053;-76
2022/10/22 10:56:15;;;;;;;9.40;4.30;;;;;;;17.51;70.61;100053.81;6329734;28;20092;-76
2022/10/22 10:59:41;;;;;;;7.18;4.47;;;;;;;17.42;72.07;100045.91;6329947;28;20040;-77
2022/10/22 11:03:03;;;;;;;5.97;3.97;;;;;;;17.50;71.38;100056.59;6329226;28;20048;-77
2022/10/22 11:06:15;;;;;;;4.95;3.25;;;;;;;17.53;70.97;100048.41;6329254;28;20050;-77
2022/10/22 11:09:40;;;;;;;6.30;3.70;;;;;;;17.53;71.86;100040.50;6347468;28;20395;-77
2022/10/22 11:12:49;;;;;;;7.13;3.38;;;;;;;17.65;71.37;100036.75;6347388;28;20036;-77
2022/10/22 11:15:59;;;;;;;8.50;3.22;;;;;;;17.70;70.25;100031.03;6329243;28;20039;-77
2022/10/22 11:19:21;;;;;;;6.88;3.55;;;;;;;17.78;70.62;100019.78;6329168;28;20036;-77
2022/10/22 11:22:34;;;;;;;4.95;3.10;;;;;;;17.83;70.23;100020.22;6311598;28;20105;-77
2022/10/22 11:25:47;;;;;;;6.35;3.53;;;;;;;17.78;70.44;100023.25;6328813;28;20044;-78
2022/10/22 11:28:52;;;;;;;5.65;3.65;;;;;;;17.79;71.53;100013.53;6347064;28;20050;-77
2022/10/22 11:31:55;;;;;;;5.60;3.03;;;;;;;17.80;72.26;100021.31;6328884;28;20144;-77
2022/10/22 11:35:01;;;;;;;5.30;3.15;;;;;;;17.99;71.73;100011.72;6328788;28;20059;-78
2022/10/22 11:38:05;;;;;;;7.45;3.55;;;;;;;17.96;71.04;100012.84;6328783;28;20044;-77
2022/10/22 11:41:14;;;;;;;5.57;3.40;;;;;;;17.90;70.54;99994.94;6328581;28;20063;-77
2022/10/22 11:44:24;;;;;;;5.38;2.67;;;;;;;17.87;69.84;99989.94;6328891;28;20086;-77
2022/10/22 11:47:34;;;;;;;3.67;2.55;;;;;;;17.92;69.79;99991.19;6328626;28;20040;-77
2022/10/22 11:50:59;;;;;;;4.18;3.08;;;;;;;17.94;70.25;99996.31;6328563;28;20047;-77
2022/10/22 11:54:19;;;;;;;3.92;2.35;;;;;;;17.95;70.77;99984.78;6328881;28;20070;-77
2022/10/22 11:57:25;;;;;;;6.50;2.67;;;;;;;17.86;72.52;99996.22;6311590;28;20052;-77
2022/10/22 12:00:34;;;;;;;4.10;2.63;;;;;;;17.85;70.84;99997.16;6346969;28;20096;-78
2022/10/22 12:03:43;;;;;;;3.70;2.65;;;;;;;17.81;71.27;99996.59;6311386;28;20136;-78
2022/10/22 12:06:52;;;;;;;5.78;2.30;;;;;;;17.80;71.78;99994.09;6346726;28;20047;-79
2022/10/22 12:09:53;;;;;;;4.40;2.50;;;;;;;17.73;71.00;99984.09;6346514;28;20039;-79
2022/10/22 12:13:17;;;;;;;6.85;2.85;;;;;;;17.72;71.38;99990.34;6328240;28;20051;-79
2022/10/22 12:16:21;;;;;;;3.53;2.35;;;;;;;17.70;71.18;99981.75;6346392;28;20514;-79
2022/10/22 12:19:24;;;;;;;6.53;2.50;;;;;;;17.77;71.54;99984.66;6346334;28;20050;-79
2022/10/22 12:22:32;;;;;;;4.93;2.90;;;;;;;17.75;71.96;99989.25;6327957;28;20048;-79
2022/10/22 12:25:35;;;;;;;2.97;2.17;;;;;;;17.66;73.38;99974.25;6328055;28;20743;-79
2022/10/22 12:28:38;;;;;;;3.10;2.30;;;;;;;17.65;71.61;99983.97;6346208;28;20040;-79
2022/10/22 12:31:41;;;;;;;5.97;2.70;;;;;;;17.67;69.35;99976.75;6346151;28;20101;-79
2022/10/22 12:34:51;;;;;;;5.00;2.95;;;;;;;17.64;69.28;99982.31;6329996;28;20127;-79
2022/10/22 12:37:54;;;;;;;8.98;2.95;;;;;;;17.51;68.18;99993.16;6351014;28;20036;-79
2022/10/22 12:40:56;;;;;;;5.93;2.75;;;;;;;17.44;68.72;99970.97;6315379;28;20047;-79
2022/10/22 12:43:58;;;;;;;4.95;3.10;;;;;;;17.51;69.16;99985.22;6332773;28;20506;-79
2022/10/22 12:46:59;;;;;;;5.50;3.67;;;;;;;17.46;69.92;99971.66;6350724;28;20040;-79
2022/10/22 12:50:02;;;;;;;13.55;6.63;;;;;;;17.45;70.94;99979.69;6332447;28;20039;-79
2022/10/22 12:53:13;;;;;;;14.65;7.18;;;;;;;17.42;72.30;99983.44;6332197;28;20047;-79
2022/10/22 12:56:21;;;;;;;27.10;10.02;;;;;;;17.41;71.99;99979.13;6317987;27;20498;-79
2022/10/22 12:59:26;;;;;;;8.63;4.78;;;;;;;17.42;71.68;99978.19;6351112;27;20104;-79
2022/10/22 13:02:27;;;;;;;9.00;5.03;;;;;;;17.36;75.09;99968.19;6375007;27;20043;-79
2022/10/22 13:05:37;;;;;;;8.50;4.78;;;;;;;17.32;75.54;99964.97;6357506;27;20099;-79
2022/10/22 13:08:39;;;;;;;7.97;3.83;;;;;;;17.23;76.05;99968.44;6357422;27;20047;-79
2022/10/22 13:11:48;;;;;;;5.35;3.30;;;;;;;17.22;77.76;99974.69;6340158;27;20043;-79
2022/10/22 13:14:49;;;;;;;8.20;3.55;;;;;;;17.19;79.61;99967.06;6375479;27;20039;-79
2022/10/22 13:17:52;;;;;;;19.75;8.90;;;;;;;17.14;79.42;99964.00;6357240;27;20047;-79
2022/10/22 13:20:56;;;;;;;11.40;5.65;;;;;;;17.14;78.76;99963.19;6340210;27;20422;-79
2022/10/22 13:24:02;;;;;;;8.93;5.13;;;;;;;17.15;79.20;99968.28;6375144;27;20106;-78
2022/10/22 13:27:07;;;;;;;14.68;6.65;;;;;;;17.11;81.06;99961.63;6356961;27;20050;-79
2022/10/22 13:30:18;;;;;;;10.88;6.22;;;;;;;17.08;80.98;99965.38;6357038;27;20487;-79
2022/10/22 13:33:31;;;;;;;26.75;16.85;;;;;;;17.07;81.97;99955.81;6339764;27;20054;-79
2022/10/22 13:36:32;;;;;;;17.85;11.52;;;;;;;16.96;82.98;99948.03;6356947;27;20383;-79
2022/10/22 13:39:34;;;;;;;12.90;8.38;;;;;;;16.97;81.60;99951.53;6356584;27;20046;-79
2022/10/22 13:42:38;;;;;;;11.85;5.03;;;;;;;16.91;82.13;99939.72;6339245;27;20057;-79
2022/10/22 13:45:39;;;;;;;9.80;4.55;;;;;;;16.95;83.23;99943.75;6356309;27;20428;-78
2022/10/22 13:48:40;;;;;;;9.20;4.38;;;;;;;16.86;84.46;99950.69;6339553;27;20047;-78
2022/10/22 13:51:42;;;;;;;7.47;4.88;;;;;;;16.91;84.82;99945.00;6356358;27;20077;-78
2022/10/22 13:54:42;;;;;;;19.90;6.30;;;;;;;16.84;88.33;99935.94;6356070;27;20043;-78
2022/10/22 13:57:46;;;;;;;9.57;5.43;;;;;;;16.81;88.79;99944.16;6356353;27;20074;-78
2022/10/22 14:00:58;;;;;;;6.82;4.53;;;;;;;16.83;87.84;99945.66;6356189;27;20112;-78
2022/10/22 14:04:00;;;;;;;9.63;5.07;;;;;;;16.78;90.26;99944.38;6374283;27;20077;-78
2022/10/22 14:07:01;;;;;;;10.18;4.88;;;;;;;16.72;88.37;99933.41;6374221;27;20050;-78
2022/10/22 14:10:11;;;;;;;9.43;5.07;;;;;;;16.68;92.08;99928.56;6356063;27;20039;-79
2022/10/22 14:13:14;;;;;;;11.90;5.93;;;;;;;16.65;94.45;99936.72;6355647;27;20039;-78
2022/10/22 14:16:21;;;;;;;11.18;5.13;;;;;;;16.62;93.35;99940.47;6338758;27;20047;-79
2022/10/22 14:19:22;;;;;;;13.02;6.35;;;;;;;16.59;93.76;99945.16;6338508;27;20077;-78
2022/10/22 14:22:27;;;;;;;13.60;6.35;;;;;;;16.52;96.13;99929.09;6373881;27;20047;-78
2022/10/22 14:25:30;;;;;;;14.00;7.80;;;;;;;16.46;96.21;99929.63;6355420;27;20091;-78
2022/10/22 14:28:34;;;;;;;16.92;8.05;;;;;;;16.44;94.49;99932.38;6355489;27;20039;-79